sensor_id;sensor_type;location;lat;lon;timestamp;pressure;altitude;pressure_sealevel;temperature;humidity
27712;BME280;2377;51.734;8.950;2022-12-29T00:00:54;96658.25;;;9.82;94.62
27712;BME280;2377;51.734;8.950;2022-12-29T00:03:23;96671.53;;;9.84;94.36
27712;BME280;2377;51.734;8.950;2022-12-29T00:05:54;96666.97;;;9.86;94.59
27712;BME280;2377;51.734;8.950;2022-12-29T00:08:22;96681.75;;;9.84;95.46
27712;BME280;2377;51.734;8.950;2022-12-29T00:11:05;96667.44;;;9.83;95.64
27712;BME280;2377;51.734;8.950;2022-12-29T00:13:32;96660.56;;;9.83;96.23
27712;BME280;2377;51.734;8.950;2022-12-29T00:16:17;96669.69;;;9.79;96.10
27712;BME280;2377;51.734;8.950;2022-12-29T00:18:46;96658.53;;;9.85;95.98
27712;BME280;2377;51.734;8.950;2022-12-29T00:21:15;96678.06;;;9.97;95.75
27712;BME280;2377;51.734;8.950;2022-12-29T00:24:00;96659.16;;;9.92;95.73
27712;BME280;2377;51.734;8.950;2022-12-29T00:26:45;96666.28;;;9.90;95.64
27712;BME280;2377;51.734;8.950;2022-12-29T00:29:31;96669.50;;;10.03;95.66
27712;BME280;2377;51.734;8.950;2022-12-29T00:32:16;96673.03;;;10.02;95.31
27712;BME280;2377;51.734;8.950;2022-12-29T00:35:02;96665.63;;;10.00;95.55
27712;BME280;2377;51.734;8.950;2022-12-29T00:37:35;96657.50;;;10.03;95.32
27712;BME280;2377;51.734;8.950;2022-12-29T00:40:17;96646.19;;;9.99;95.53
27712;BME280;2377;51.734;8.950;2022-12-29T00:43:01;96653.41;;;10.02;95.43
27712;BME280;2377;51.734;8.950;2022-12-29T00:45:46;96649.13;;;10.08;95.37
27712;BME280;2377;51.734;8.950;2022-12-29T00:48:13;96651.13;;;10.06;95.31
27712;BME280;2377;51.734;8.950;2022-12-29T00:50:41;96650.72;;;10.14;94.83
27712;BME280;2377;51.734;8.950;2022-12-29T00:53:07;96640.75;;;10.12;94.81
27712;BME280;2377;51.734;8.950;2022-12-29T00:55:37;96640.03;;;10.17;94.55
27712;BME280;2377;51.734;8.950;2022-12-29T00:58:04;96647.47;;;10.19;94.84
27712;BME280;2377;51.734;8.950;2022-12-29T01:00:31;96631.94;;;10.25;94.43
27712;BME280;2377;51.734;8.950;2022-12-29T01:02:58;96642.63;;;10.22;94.29
27712;BME280;2377;51.734;8.950;2022-12-29T01:05:25;96641.13;;;10.21;94.50
27712;BME280;2377;51.734;8.950;2022-12-29T01:07:53;96630.63;;;10.23;94.61
27712;BME280;2377;51.734;8.950;2022-12-29T01:10:20;96627.03;;;10.19;95.16
27712;BME280;2377;51.734;8.950;2022-12-29T01:12:46;96623.25;;;10.21;94.98
27712;BME280;2377;51.734;8.950;2022-12-29T01:15:15;96633.09;;;10.12;95.17
27712;BME280;2377;51.734;8.950;2022-12-29T01:17:42;96629.34;;;10.20;95.25
27712;BME280;2377;51.734;8.950;2022-12-29T01:20:11;96627.81;;;10.19;95.42
27712;BME280;2377;51.734;8.950;2022-12-29T01:22:38;96618.94;;;10.27;95.04
27712;BME280;2377;51.734;8.950;2022-12-29T01:25:08;96612.75;;;10.23;95.04
27712;BME280;2377;51.734;8.950;2022-12-29T01:27:35;96609.59;;;10.32;94.54
27712;BME280;2377;51.734;8.950;2022-12-29T01:30:03;96597.34;;;10.34;94.55
27712;BME280;2377;51.734;8.950;2022-12-29T01:32:31;96597.16;;;10.41;94.32
27712;BME280;2377;51.734;8.950;2022-12-29T01:34:58;96598.91;;;10.35;94.25
27712;BME280;2377;51.734;8.950;2022-12-29T01:37:25;96584.56;;;10.34;94.47
27712;BME280;2377;51.734;8.950;2022-12-29T01:39:52;96582.53;;;10.36;94.42
27712;BME280;2377;51.734;8.950;2022-12-29T01:42:25;96582.50;;;10.31;93.96
27712;BME280;2377;51.734;8.950;2022-12-29T01:44:55;96584.44;;;10.24;93.93
27712;BME280;2377;51.734;8.950;2022-12-29T01:47:31;96583.81;;;10.12;94.38
27712;BME280;2377;51.734;8.950;2022-12-29T01:50:06;96582.97;;;10.06;94.46
27712;BME280;2377;51.734;8.950;2022-12-29T01:52:40;96584.47;;;10.02;94.45
27712;BME280;2377;51.734;8.950;2022-12-29T01:55:11;96581.63;;;9.99;94.52
27712;BME280;2377;51.734;8.950;2022-12-29T01:57:46;96577.72;;;9.91;95.06
27712;BME280;2377;51.734;8.950;2022-12-29T02:00:16;96571.31;;;9.88;95.27
27712;BME280;2377;51.734;8.950;2022-12-29T02:02:47;96573.81;;;9.83;95.35
27712;BME280;2377;51.734;8.950;2022-12-29T02:05:25;96565.13;;;9.84;95.61
27712;BME280;2377;51.734;8.950;2022-12-29T02:07:55;96563.59;;;9.83;95.82
27712;BME280;2377;51.734;8.950;2022-12-29T02:10:26;96565.13;;;9.84;95.44
27712;BME280;2377;51.734;8.950;2022-12-29T02:12:56;96563.66;;;9.88;95.75
27712;BME280;2377;51.734;8.950;2022-12-29T02:15:37;96566.66;;;9.85;95.78
27712;BME280;2377;51.734;8.950;2022-12-29T02:18:22;96551.84;;;9.82;95.75
27712;BME280;2377;51.734;8.950;2022-12-29T02:21:58;96555.34;;;9.76;96.04
27712;BME280;2377;51.734;8.950;2022-12-29T02:27:58;96561.75;;;9.79;96.08
27712;BME280;2377;51.734;8.950;2022-12-29T02:31:03;96560.50;;;9.81;95.95
27712;BME280;2377;51.734;8.950;2022-12-29T02:33:50;96551.06;;;9.82;96.63
27712;BME280;2377;51.734;8.950;2022-12-29T02:36:30;96560.66;;;9.97;96.37
27712;BME280;2377;51.734;8.950;2022-12-29T02:39:09;96548.34;;;10.15;95.88
27712;BME280;2377;51.734;8.950;2022-12-29T02:41:49;96570.75;;;10.30;95.09
27712;BME280;2377;51.734;8.950;2022-12-29T02:44:27;96560.53;;;10.30;95.32
27712;BME280;2377;51.734;8.950;2022-12-29T02:47:09;96570.50;;;10.32;96.27
27712;BME280;2377;51.734;8.950;2022-12-29T02:49:47;96569.25;;;10.34;96.53
27712;BME280;2377;51.734;8.950;2022-12-29T02:52:22;96568.78;;;10.38;96.10
27712;BME280;2377;51.734;8.950;2022-12-29T02:54:54;96569.34;;;10.45;95.84
27712;BME280;2377;51.734;8.950;2022-12-29T02:57:32;96571.19;;;10.49;95.20
27712;BME280;2377;51.734;8.950;2022-12-29T03:00:05;96549.69;;;10.45;94.82
27712;BME280;2377;51.734;8.950;2022-12-29T03:03:06;96553.53;;;10.48;94.21
27712;BME280;2377;51.734;8.950;2022-12-29T03:06:10;96543.81;;;10.45;94.03
27712;BME280;2377;51.734;8.950;2022-12-29T03:08:50;96528.50;;;10.45;93.58
27712;BME280;2377;51.734;8.950;2022-12-29T03:11:32;96527.50;;;10.51;93.37
27712;BME280;2377;51.734;8.950;2022-12-29T03:14:27;96531.84;;;10.50;92.88
27712;BME280;2377;51.734;8.950;2022-12-29T03:17:24;96529.06;;;10.52;92.48
27712;BME280;2377;51.734;8.950;2022-12-29T03:20:04;96513.97;;;10.50;92.71
27712;BME280;2377;51.734;8.950;2022-12-29T03:22:38;96507.34;;;10.54;91.67
27712;BME280;2377;51.734;8.950;2022-12-29T03:25:13;96509.91;;;10.54;90.78
27712;BME280;2377;51.734;8.950;2022-12-29T03:27:45;96502.78;;;10.56;90.03
27712;BME280;2377;51.734;8.950;2022-12-29T03:30:14;96512.28;;;10.61;90.03
27712;BME280;2377;51.734;8.950;2022-12-29T03:32:45;96505.81;;;10.53;89.26
27712;BME280;2377;51.734;8.950;2022-12-29T03:35:18;96499.00;;;10.64;88.82
27712;BME280;2377;51.734;8.950;2022-12-29T03:37:55;96492.34;;;10.63;88.59
27712;BME280;2377;51.734;8.950;2022-12-29T03:40:27;96506.69;;;10.69;87.93
27712;BME280;2377;51.734;8.950;2022-12-29T03:42:57;96494.94;;;10.68;88.55
27712;BME280;2377;51.734;8.950;2022-12-29T03:45:25;96497.75;;;10.72;88.41
27712;BME280;2377;51.734;8.950;2022-12-29T03:47:53;96508.69;;;10.62;88.66
27712;BME280;2377;51.734;8.950;2022-12-29T03:50:21;96511.28;;;10.67;88.32
27712;BME280;2377;51.734;8.950;2022-12-29T03:52:48;96508.78;;;10.72;88.01
27712;BME280;2377;51.734;8.950;2022-12-29T03:55:15;96503.16;;;10.75;87.62
27712;BME280;2377;51.734;8.950;2022-12-29T03:57:42;96497.50;;;10.68;87.71
27712;BME280;2377;51.734;8.950;2022-12-29T04:00:11;96502.84;;;10.67;86.64
27712;BME280;2377;51.734;8.950;2022-12-29T04:02:39;96496.00;;;10.72;86.78
27712;BME280;2377;51.734;8.950;2022-12-29T04:05:07;96503.66;;;10.72;85.99
27712;BME280;2377;51.734;8.950;2022-12-29T04:07:35;96504.22;;;10.79;85.33
27712;BME280;2377;51.734;8.950;2022-12-29T04:10:03;96491.88;;;10.71;85.88
27712;BME280;2377;51.734;8.950;2022-12-29T04:12:30;96492.94;;;10.75;85.95
27712;BME280;2377;51.734;8.950;2022-12-29T04:14:57;96487.34;;;10.78;85.48
27712;BME280;2377;51.734;8.950;2022-12-29T04:17:24;96492.94;;;10.75;85.83
27712;BME280;2377;51.734;8.950;2022-12-29T04:19:51;96494.75;;;10.80;85.77
27712;BME280;2377;51.734;8.950;2022-12-29T04:22:39;96486.28;;;10.74;85.34
27712;BME280;2377;51.734;8.950;2022-12-29T04:25:10;96495.50;;;10.75;85.22
27712;BME280;2377;51.734;8.950;2022-12-29T04:27:37;96482.53;;;10.87;84.79
27712;BME280;2377;51.734;8.950;2022-12-29T04:30:06;96484.34;;;10.87;85.01
27712;BME280;2377;51.734;8.950;2022-12-29T04:32:33;96486.34;;;10.85;85.40
27712;BME280;2377;51.734;8.950;2022-12-29T04:35:00;96488.91;;;10.85;85.53
27712;BME280;2377;51.734;8.950;2022-12-29T04:37:27;96484.81;;;10.84;85.86
27712;BME280;2377;51.734;8.950;2022-12-29T04:39:55;96491.94;;;10.82;86.30
27712;BME280;2377;51.734;8.950;2022-12-29T04:42:22;96486.63;;;10.88;86.18
27712;BME280;2377;51.734;8.950;2022-12-29T04:44:49;96479.69;;;10.84;86.57
27712;BME280;2377;51.734;8.950;2022-12-29T04:47:16;96476.13;;;10.85;87.13
27712;BME280;2377;51.734;8.950;2022-12-29T04:49:43;96476.13;;;10.85;87.45
27712;BME280;2377;51.734;8.950;2022-12-29T04:52:10;96470.50;;;10.83;87.70
27712;BME280;2377;51.734;8.950;2022-12-29T04:54:37;96464.09;;;10.80;88.14
27712;BME280;2377;51.734;8.950;2022-12-29T04:57:06;96461.75;;;10.73;88.70
27712;BME280;2377;51.734;8.950;2022-12-29T04:59:33;96469.91;;;10.70;89.05
27712;BME280;2377;51.734;8.950;2022-12-29T05:02:00;96467.91;;;10.77;88.90
27712;BME280;2377;51.734;8.950;2022-12-29T05:04:28;96475.06;;;10.75;89.01
27712;BME280;2377;51.734;8.950;2022-12-29T05:06:55;96461.03;;;10.83;88.90
27712;BME280;2377;51.734;8.950;2022-12-29T05:09:22;96464.09;;;10.80;89.40
27712;BME280;2377;51.734;8.950;2022-12-29T05:11:50;96471.75;;;10.80;89.68
27712;BME280;2377;51.734;8.950;2022-12-29T05:14:18;96474.03;;;10.76;89.69
27712;BME280;2377;51.734;8.950;2022-12-29T05:16:45;96464.09;;;10.80;89.76
27712;BME280;2377;51.734;8.950;2022-12-29T05:19:12;96464.13;;;10.85;89.50
27712;BME280;2377;51.734;8.950;2022-12-29T05:21:39;96472.56;;;10.86;89.55
27712;BME280;2377;51.734;8.950;2022-12-29T05:24:07;96464.66;;;10.87;89.91
27712;BME280;2377;51.734;8.950;2022-12-29T05:26:34;96470.03;;;10.91;89.79
27712;BME280;2377;51.734;8.950;2022-12-29T05:29:01;96455.69;;;10.85;90.08
27712;BME280;2377;51.734;8.950;2022-12-29T05:31:29;96458.22;;;10.79;90.20
27712;BME280;2377;51.734;8.950;2022-12-29T05:33:56;96463.63;;;10.88;90.16
27712;BME280;2377;51.734;8.950;2022-12-29T05:36:23;96460.31;;;10.88;90.03
27712;BME280;2377;51.734;8.950;2022-12-29T05:38:51;96458.53;;;10.93;89.96
27712;BME280;2377;51.734;8.950;2022-12-29T05:41:18;96456.97;;;10.87;89.79
27712;BME280;2377;51.734;8.950;2022-12-29T05:43:45;96453.13;;;10.85;89.84
27712;BME280;2377;51.734;8.950;2022-12-29T05:46:12;96446.47;;;10.84;89.78
27712;BME280;2377;51.734;8.950;2022-12-29T05:48:40;96457.72;;;10.83;89.57
27712;BME280;2377;51.734;8.950;2022-12-29T05:51:07;96456.66;;;10.78;90.18
27712;BME280;2377;51.734;8.950;2022-12-29T05:53:34;96465.66;;;10.86;90.23
27712;BME280;2377;51.734;8.950;2022-12-29T05:56:01;96456.16;;;10.82;90.43
27712;BME280;2377;51.734;8.950;2022-12-29T05:58:29;96449.53;;;10.81;90.63
27712;BME280;2377;51.734;8.950;2022-12-29T06:00:56;96451.03;;;10.76;91.15
27712;BME280;2377;51.734;8.950;2022-12-29T06:03:23;96442.06;;;10.74;91.37
27712;BME280;2377;51.734;8.950;2022-12-29T06:05:51;96450.75;;;10.68;91.36
27712;BME280;2377;51.734;8.950;2022-12-29T06:08:18;96461.19;;;10.66;91.41
27712;BME280;2377;51.734;8.950;2022-12-29T06:10:45;96447.69;;;10.71;90.89
27712;BME280;2377;51.734;8.950;2022-12-29T06:13:13;96452.56;;;10.72;89.98
27712;BME280;2377;51.734;8.950;2022-12-29T06:15:40;96452.06;;;10.75;89.18
27712;BME280;2377;51.734;8.950;2022-12-29T06:18:07;96448.50;;;10.82;87.49
27712;BME280;2377;51.734;8.950;2022-12-29T06:20:34;96455.47;;;10.91;86.75
27712;BME280;2377;51.734;8.950;2022-12-29T06:23:03;96444.97;;;10.93;86.86
27712;BME280;2377;51.734;8.950;2022-12-29T06:25:30;96456.75;;;10.94;85.70
27712;BME280;2377;51.734;8.950;2022-12-29T06:27:59;96459.31;;;10.94;84.81
27712;BME280;2377;51.734;8.950;2022-12-29T06:30:26;96467.28;;;11.03;84.77
27712;BME280;2377;51.734;8.950;2022-12-29T06:32:53;96461.16;;;11.04;84.27
27712;BME280;2377;51.734;8.950;2022-12-29T06:35:21;96471.41;;;11.09;84.33
27712;BME280;2377;51.734;8.950;2022-12-29T06:37:48;96461.41;;;11.07;83.73
27712;BME280;2377;51.734;8.950;2022-12-29T06:40:17;96459.66;;;11.08;83.45
27712;BME280;2377;51.734;8.950;2022-12-29T06:42:44;96463.75;;;11.14;82.84
27712;BME280;2377;51.734;8.950;2022-12-29T06:45:11;96475.78;;;11.13;82.95
27712;BME280;2377;51.734;8.950;2022-12-29T06:47:38;96468.88;;;11.19;82.14
27712;BME280;2377;51.734;8.950;2022-12-29T06:50:06;96462.22;;;11.13;82.58
27712;BME280;2377;51.734;8.950;2022-12-29T06:52:33;96461.47;;;11.12;82.12
27712;BME280;2377;51.734;8.950;2022-12-29T06:55:01;96473.22;;;11.18;82.66
27712;BME280;2377;51.734;8.950;2022-12-29T06:57:30;96493.97;;;11.22;82.62
27712;BME280;2377;51.734;8.950;2022-12-29T06:59:57;96488.56;;;11.18;82.15
27712;BME280;2377;51.734;8.950;2022-12-29T07:02:24;96490.34;;;11.13;82.55
27712;BME280;2377;51.734;8.950;2022-12-29T07:04:52;96481.66;;;11.19;81.91
27712;BME280;2377;51.734;8.950;2022-12-29T07:07:19;96488.06;;;11.21;81.86
27712;BME280;2377;51.734;8.950;2022-12-29T07:09:46;96479.63;;;11.21;82.12
27712;BME280;2377;51.734;8.950;2022-12-29T07:12:14;96483.47;;;11.18;81.46
27712;BME280;2377;51.734;8.950;2022-12-29T07:14:42;96494.19;;;11.15;81.37
27712;BME280;2377;51.734;8.950;2022-12-29T07:17:09;96491.44;;;11.22;81.63
27712;BME280;2377;51.734;8.950;2022-12-29T07:19:36;96493.94;;;11.17;81.67
27712;BME280;2377;51.734;8.950;2022-12-29T07:22:04;96489.13;;;11.26;81.45
27712;BME280;2377;51.734;8.950;2022-12-29T07:24:31;96488.06;;;11.21;82.00
27712;BME280;2377;51.734;8.950;2022-12-29T07:26:58;96481.66;;;11.19;82.07
27712;BME280;2377;51.734;8.950;2022-12-29T07:29:25;96486.03;;;11.18;82.46
27712;BME280;2377;51.734;8.950;2022-12-29T07:31:53;96490.09;;;11.14;82.19
27712;BME280;2377;51.734;8.950;2022-12-29T07:34:20;96499.63;;;11.24;82.23
27712;BME280;2377;51.734;8.950;2022-12-29T07:36:47;96510.53;;;11.14;82.39
27712;BME280;2377;51.734;8.950;2022-12-29T07:39:14;96508.03;;;11.19;82.10
27712;BME280;2377;51.734;8.950;2022-12-29T07:41:41;96503.41;;;11.16;82.46
27712;BME280;2377;51.734;8.950;2022-12-29T07:44:09;96513.16;;;11.19;82.35
27712;BME280;2377;51.734;8.950;2022-12-29T07:46:36;96524.13;;;11.15;82.69
27712;BME280;2377;51.734;8.950;2022-12-29T07:49:04;96509.22;;;11.07;82.86
27712;BME280;2377;51.734;8.950;2022-12-29T07:51:32;96532.00;;;11.08;83.36
27712;BME280;2377;51.734;8.950;2022-12-29T07:53:59;96524.03;;;11.05;82.95
27712;BME280;2377;51.734;8.950;2022-12-29T07:56:27;96525.84;;;11.04;83.18
27712;BME280;2377;51.734;8.950;2022-12-29T07:58:54;96523.31;;;11.09;83.41
27712;BME280;2377;51.734;8.950;2022-12-29T08:01:21;96517.19;;;11.10;83.09
27712;BME280;2377;51.734;8.950;2022-12-29T08:03:49;96537.13;;;11.08;83.71
27712;BME280;2377;51.734;8.950;2022-12-29T08:06:17;96545.78;;;11.07;84.04
27712;BME280;2377;51.734;8.950;2022-12-29T08:08:45;96537.59;;;11.05;84.69
27712;BME280;2377;51.734;8.950;2022-12-29T08:11:12;96542.97;;;11.04;84.91
27712;BME280;2377;51.734;8.950;2022-12-29T08:13:39;96553.13;;;10.93;85.33
27712;BME280;2377;51.734;8.950;2022-12-29T08:16:06;96563.63;;;10.97;85.55
27712;BME280;2377;51.734;8.950;2022-12-29T08:18:34;96556.19;;;10.95;85.49
27712;BME280;2377;51.734;8.950;2022-12-29T08:21:02;96561.47;;;10.84;86.65
27712;BME280;2377;51.734;8.950;2022-12-29T08:23:31;96571.25;;;10.87;86.81
27712;BME280;2377;51.734;8.950;2022-12-29T08:25:59;96560.50;;;10.90;87.12
27712;BME280;2377;51.734;8.950;2022-12-29T08:28:26;96569.66;;;10.81;87.92
27712;BME280;2377;51.734;8.950;2022-12-29T08:30:56;96565.56;;;10.79;87.99
27712;BME280;2377;51.734;8.950;2022-12-29T08:33:23;96567.81;;;10.76;87.81
27712;BME280;2377;51.734;8.950;2022-12-29T08:35:51;96557.38;;;10.77;87.63
27712;BME280;2377;51.734;8.950;2022-12-29T08:38:18;96567.28;;;10.74;87.52
27712;BME280;2377;51.734;8.950;2022-12-29T08:40:46;96583.38;;;10.74;86.95
27712;BME280;2377;51.734;8.950;2022-12-29T08:43:14;96568.56;;;10.71;86.01
27712;BME280;2377;51.734;8.950;2022-12-29T08:45:41;96576.69;;;10.63;85.59
27712;BME280;2377;51.734;8.950;2022-12-29T08:48:08;96575.22;;;10.72;84.95
27712;BME280;2377;51.734;8.950;2022-12-29T08:50:35;96589.44;;;10.63;84.42
27712;BME280;2377;51.734;8.950;2022-12-29T08:53:02;96594.03;;;10.61;84.78
27712;BME280;2377;51.734;8.950;2022-12-29T08:55:29;96581.78;;;10.63;85.40
27712;BME280;2377;51.734;8.950;2022-12-29T08:57:58;96586.38;;;10.61;85.93
27712;BME280;2377;51.734;8.950;2022-12-29T09:00:25;96593.50;;;10.59;86.68
27712;BME280;2377;51.734;8.950;2022-12-29T09:02:52;96598.59;;;10.59;86.81
27712;BME280;2377;51.734;8.950;2022-12-29T09:05:19;96595.56;;;10.62;87.09
27712;BME280;2377;51.734;8.950;2022-12-29T09:07:46;96608.38;;;10.67;86.96
27712;BME280;2377;51.734;8.950;2022-12-29T09:10:13;96600.66;;;10.62;87.50
27712;BME280;2377;51.734;8.950;2022-12-29T09:12:40;96596.06;;;10.59;87.73
27712;BME280;2377;51.734;8.950;2022-12-29T09:15:10;96599.09;;;10.56;87.93
27712;BME280;2377;51.734;8.950;2022-12-29T09:17:37;96604.13;;;10.51;88.17
27712;BME280;2377;51.734;8.950;2022-12-29T09:20:09;96607.47;;;10.51;87.82
27712;BME280;2377;51.734;8.950;2022-12-29T09:22:36;96599.28;;;10.49;88.20
27712;BME280;2377;51.734;8.950;2022-12-29T09:25:04;96609.72;;;10.48;88.30
27712;BME280;2377;51.734;8.950;2022-12-29T09:27:31;96619.22;;;10.52;88.68
27712;BME280;2377;51.734;8.950;2022-12-29T09:29:58;96617.69;;;10.51;88.66
27712;BME280;2377;51.734;8.950;2022-12-29T09:32:27;96622.03;;;10.51;89.09
27712;BME280;2377;51.734;8.950;2022-12-29T09:34:54;96618.50;;;10.57;89.02
27712;BME280;2377;51.734;8.950;2022-12-29T09:37:21;96618.03;;;10.60;89.40
27712;BME280;2377;51.734;8.950;2022-12-29T09:39:48;96624.97;;;10.65;89.57
27712;BME280;2377;51.734;8.950;2022-12-29T09:42:23;96626.75;;;10.64;89.55
27712;BME280;2377;51.734;8.950;2022-12-29T09:45:08;96630.84;;;10.65;89.54
27712;BME280;2377;51.734;8.950;2022-12-29T09:47:42;96627.78;;;10.63;89.20
27712;BME280;2377;51.734;8.950;2022-12-29T09:50:20;96629.84;;;10.66;89.01
27712;BME280;2377;51.734;8.950;2022-12-29T09:52:55;96623.97;;;10.66;87.85
27712;BME280;2377;51.734;8.950;2022-12-29T09:55:36;96617.59;;;10.68;87.20
27712;BME280;2377;51.734;8.950;2022-12-29T09:58:13;96619.66;;;10.71;87.07
27712;BME280;2377;51.734;8.950;2022-12-29T10:01:00;96622.25;;;10.76;86.28
27712;BME280;2377;51.734;8.950;2022-12-29T10:03:43;96624.38;;;10.85;85.52
27712;BME280;2377;51.734;8.950;2022-12-29T10:06:18;96617.50;;;10.90;85.34
27712;BME280;2377;51.734;8.950;2022-12-29T10:08:59;96616.75;;;10.90;84.29
27712;BME280;2377;51.734;8.950;2022-12-29T10:11:50;96614.38;;;10.83;83.62
27712;BME280;2377;51.734;8.950;2022-12-29T10:14:38;96620.81;;;10.86;83.66
27712;BME280;2377;51.734;8.950;2022-12-29T10:17:26;96620.75;;;10.81;83.73
27712;BME280;2377;51.734;8.950;2022-12-29T10:20:21;96612.59;;;10.84;83.86
27712;BME280;2377;51.734;8.950;2022-12-29T10:23:32;96619.75;;;10.82;84.19
27712;BME280;2377;51.734;8.950;2022-12-29T10:26:03;96615.66;;;10.81;84.86
27712;BME280;2377;51.734;8.950;2022-12-29T10:28:38;96613.84;;;10.81;85.07
27712;BME280;2377;51.734;8.950;2022-12-29T10:31:14;96614.13;;;10.79;85.00
27712;BME280;2377;51.734;8.950;2022-12-29T10:33:43;96618.78;;;10.88;84.67
27712;BME280;2377;51.734;8.950;2022-12-29T10:36:18;96618.94;;;10.76;85.41
27712;BME280;2377;51.734;8.950;2022-12-29T10:39:01;96616.56;;;10.69;84.92
27712;BME280;2377;51.734;8.950;2022-12-29T10:41:38;96624.19;;;10.64;85.96
27712;BME280;2377;51.734;8.950;2022-12-29T10:44:14;96618.84;;;10.66;85.75
27712;BME280;2377;51.734;8.950;2022-12-29T10:46:46;96635.31;;;10.53;85.84
27712;BME280;2377;51.734;8.950;2022-12-29T10:49:19;96629.53;;;10.35;85.81
27712;BME280;2377;51.734;8.950;2022-12-29T10:51:50;96674.03;;;10.40;88.16
27712;BME280;2377;51.734;8.950;2022-12-29T10:54:25;96648.53;;;10.45;89.27
27712;BME280;2377;51.734;8.950;2022-12-29T10:57:00;96648.19;;;10.36;89.46
27712;BME280;2377;51.734;8.950;2022-12-29T10:59:31;96647.03;;;10.27;90.35
27712;BME280;2377;51.734;8.950;2022-12-29T11:02:38;96636.94;;;10.15;90.06
27712;BME280;2377;51.734;8.950;2022-12-29T11:05:19;96636.19;;;10.14;91.66
27712;BME280;2377;51.734;8.950;2022-12-29T11:07:58;96633.94;;;10.40;91.25
27712;BME280;2377;51.734;8.950;2022-12-29T11:10:36;96637.41;;;10.56;90.17
27712;BME280;2377;51.734;8.950;2022-12-29T11:13:12;96642.63;;;10.66;90.40
27712;BME280;2377;51.734;8.950;2022-12-29T11:15:42;96640.28;;;10.65;90.10
27712;BME280;2377;51.734;8.950;2022-12-29T11:18:23;96636.44;;;10.62;89.30
27712;BME280;2377;51.734;8.950;2022-12-29T11:20:55;96633.34;;;10.60;89.48
27712;BME280;2377;51.734;8.950;2022-12-29T11:23:38;96630.06;;;10.65;89.00
27712;BME280;2377;51.734;8.950;2022-12-29T11:26:17;96616.00;;;10.62;87.43
27712;BME280;2377;51.734;8.950;2022-12-29T11:28:47;96626.97;;;10.63;85.94
27712;BME280;2377;51.734;8.950;2022-12-29T11:31:21;96640.06;;;10.66;84.02
27712;BME280;2377;51.734;8.950;2022-12-29T11:33:48;96627.78;;;10.63;82.89
27712;BME280;2377;51.734;8.950;2022-12-29T11:36:20;96654.38;;;10.67;81.72
27712;BME280;2377;51.734;8.950;2022-12-29T11:38:53;96650.25;;;10.61;81.16
27712;BME280;2377;51.734;8.950;2022-12-29T11:41:24;96655.94;;;10.68;80.65
27712;BME280;2377;51.734;8.950;2022-12-29T11:43:56;96638.50;;;10.65;79.08
27712;BME280;2377;51.734;8.950;2022-12-29T11:46:28;96641.00;;;10.60;78.98
27712;BME280;2377;51.734;8.950;2022-12-29T11:48:57;96640.88;;;10.72;79.42
27712;BME280;2377;51.734;8.950;2022-12-29T11:51:30;96644.09;;;10.62;78.84
27712;BME280;2377;51.734;8.950;2022-12-29T11:54:02;96643.41;;;10.72;79.24
27712;BME280;2377;51.734;8.950;2022-12-29T11:56:36;96645.66;;;10.63;77.87
27712;BME280;2377;51.734;8.950;2022-12-29T11:59:41;96653.03;;;10.60;77.94
27712;BME280;2377;51.734;8.950;2022-12-29T12:02:35;96660.47;;;10.61;77.50
27712;BME280;2377;51.734;8.950;2022-12-29T12:05:22;96643.00;;;10.53;76.92
27712;BME280;2377;51.734;8.950;2022-12-29T12:07:58;96646.84;;;10.55;76.89
27712;BME280;2377;51.734;8.950;2022-12-29T12:10:34;96646.97;;;10.44;76.17
27712;BME280;2377;51.734;8.950;2022-12-29T12:13:18;96665.97;;;10.53;76.19
27712;BME280;2377;51.734;8.950;2022-12-29T12:15:54;96656.25;;;10.50;75.28
27712;BME280;2377;51.734;8.950;2022-12-29T12:18:37;96652.94;;;10.49;75.37
27712;BME280;2377;51.734;8.950;2022-12-29T12:21:15;96661.59;;;10.48;74.54
27712;BME280;2377;51.734;8.950;2022-12-29T12:24:13;96662.84;;;10.46;74.70
27712;BME280;2377;51.734;8.950;2022-12-29T12:26:57;96653.84;;;10.38;74.28
27712;BME280;2377;51.734;8.950;2022-12-29T12:29:33;96655.44;;;10.44;73.75
27712;BME280;2377;51.734;8.950;2022-12-29T12:32:12;96656.75;;;10.47;73.47
27712;BME280;2377;51.734;8.950;2022-12-29T12:34:43;96663.44;;;10.53;74.72
27712;BME280;2377;51.734;8.950;2022-12-29T12:40:57;96662.09;;;10.45;73.69
27712;BME280;2377;51.734;8.950;2022-12-29T12:43:40;96668.72;;;10.46;73.93
27712;BME280;2377;51.734;8.950;2022-12-29T12:46:46;96672.06;;;10.47;73.97
27712;BME280;2377;51.734;8.950;2022-12-29T12:49:57;96674.03;;;10.40;73.97
27712;BME280;2377;51.734;8.950;2022-12-29T12:52:38;96668.72;;;10.46;74.49
27712;BME280;2377;51.734;8.950;2022-12-29T12:55:39;96671.41;;;10.34;73.88
27712;BME280;2377;51.734;8.950;2022-12-29T12:58:18;96677.09;;;10.42;74.64
27712;BME280;2377;51.734;8.950;2022-12-29T13:01:03;96676.63;;;10.45;74.45
27712;BME280;2377;51.734;8.950;2022-12-29T13:03:52;96679.47;;;10.48;74.34
27712;BME280;2377;51.734;8.950;2022-12-29T13:06:39;96663.34;;;10.43;74.87
27712;BME280;2377;51.734;8.950;2022-12-29T13:09:48;96671.94;;;10.36;74.47
27712;BME280;2377;51.734;8.950;2022-12-29T13:12:31;96679.59;;;10.36;74.82
27712;BME280;2377;51.734;8.950;2022-12-29T13:15:17;96682.91;;;10.37;74.60
27712;BME280;2377;51.734;8.950;2022-12-29T13:17:59;96680.84;;;10.34;73.94
27712;BME280;2377;51.734;8.950;2022-12-29T13:20:35;96685.78;;;10.41;75.00
27712;BME280;2377;51.734;8.950;2022-12-29T13:23:13;96688.78;;;10.32;74.33
27712;BME280;2377;51.734;8.950;2022-12-29T13:25:51;96692.72;;;10.45;74.53
27712;BME280;2377;51.734;8.950;2022-12-29T13:28:31;96699.38;;;10.46;74.72
27712;BME280;2377;51.734;8.950;2022-12-29T13:31:06;96687.31;;;10.42;74.91
27712;BME280;2377;51.734;8.950;2022-12-29T13:33:49;96696.50;;;10.38;74.95
27712;BME280;2377;51.734;8.950;2022-12-29T13:36:25;96702.13;;;10.40;74.41
27712;BME280;2377;51.734;8.950;2022-12-29T13:39:02;96703.06;;;10.33;75.08
27712;BME280;2377;51.734;8.950;2022-12-29T13:41:37;96719.22;;;10.39;74.98
27712;BME280;2377;51.734;8.950;2022-12-29T13:44:09;96711.63;;;10.44;74.94
27712;BME280;2377;51.734;8.950;2022-12-29T13:46:44;96717.69;;;10.38;75.21
27712;BME280;2377;51.734;8.950;2022-12-29T13:49:18;96735.84;;;10.42;75.13
27712;BME280;2377;51.734;8.950;2022-12-29T13:51:50;96735.03;;;10.36;75.70